Right Now

Temperature THW Index 115.63°

96.8° 1.26

Humidity

61.62% 5.71

Dew Point

84.23° 1.05

Pressure

1016.83mb 0.3

Wind

4.34mph 1.36 S

Rain

0"

Yesterday

Filter Columns:
Timestamp Temp Ground Temp Est. Temp THW Index Wet Bulb Humidity Dew Point Pressure Wind Speed Wind Gust Lightning Rainfall
375262 6/21/2024 11:57pm 84.79° F --° F 84.79° F 104.26° F 80.37° F 100.00% 84.79° F 1018.07mb 1.70mph NNW 2.74mph 0 0.000"
375261 6/21/2024 11:52pm 84.36° F --° F 84.36° F 102.65° F 79.94° F 100.00% 84.36° F 1018.22mb 1.45mph N 2.74mph 0 0.000"
375260 6/21/2024 11:47pm 83.79° F --° F 83.79° F 101.77° F 79.36° F 100.00% 83.79° F 1018.17mb 0.00mph -- 0.69mph 0 0.000"
375259 6/21/2024 11:42pm 84.18° F --° F 84.18° F 103.43° F 79.75° F 100.00% 84.18° F 1018.21mb 0.00mph -- 0.00mph 0 0.000"
375258 6/21/2024 11:37pm 84.63° F --° F 84.63° F 105.38° F 80.21° F 100.00% 84.63° F 1018.14mb 0.00mph -- 0.00mph 0 0.000"
375257 6/21/2024 11:32pm 85.23° F --° F 85.23° F 108.04° F 80.81° F 100.00% 85.23° F 1018.06mb 0.00mph -- 0.00mph 0 0.000"
375256 6/21/2024 11:27pm 85.71° F --° F 85.71° F 109.97° F 81.30° F 100.00% 85.71° F 1018.11mb 0.23mph N 2.07mph 0 0.000"
375255 6/21/2024 11:22pm 85.50° F --° F 85.50° F 109.01° F 81.08° F 100.00% 85.50° F 1018.14mb 0.23mph N 2.07mph 0 0.000"
375254 6/21/2024 11:17pm 85.10° F --° F 85.10° F 106.35° F 80.68° F 100.00% 85.10° F 1018.17mb 1.03mph NNW 2.74mph 0 0.000"
375253 6/21/2024 11:12pm 85.01° F --° F 85.01° F 107.05° F 80.59° F 100.00% 85.01° F 1018.17mb 0.00mph -- 0.00mph 0 0.000"
375252 6/21/2024 11:07pm 85.57° F --° F 85.57° F 109.57° F 81.15° F 100.00% 85.57° F 1018.18mb 0.00mph -- 0.00mph 0 0.000"
375251 6/21/2024 11:01pm 86.23° F --° F 86.23° F 112.62° F 81.82° F 100.00% 86.23° F 1018.24mb 0.00mph -- 0.00mph 0 0.000"
375250 6/21/2024 10:56pm 86.68° F --° F 86.68° F 113.93° F 82.27° F 100.00% 86.68° F 1018.26mb 0.76mph N 2.74mph 0 0.000"
375249 6/21/2024 10:51pm 86.59° F --° F 86.59° F 114.02° F 82.18° F 100.00% 86.59° F 1018.15mb 0.28mph N 2.07mph 0 0.000"
375248 6/21/2024 10:46pm 86.05° F --° F 86.05° F 111.78° F 81.64° F 100.00% 86.05° F 1018.03mb 0.00mph -- 0.00mph 0 0.000"
375247 6/21/2024 10:41pm 85.69° F --° F 85.69° F 108.81° F 80.99° F 97.91% 85.16° F 1018.04mb 0.00mph -- 0.00mph 0 0.000"
375245 6/21/2024 10:36pm 86.18° F --° F 86.18° F 109.36° F 81.17° F 95.42% 85.00° F 1017.95mb 0.00mph -- 0.00mph 0 0.000"
375246 6/21/2024 10:31pm 86.83° F --° F 86.83° F 109.85° F 81.38° F 92.02% 84.73° F 1017.91mb 0.00mph -- 0.00mph 0 0.000"
375244 6/21/2024 10:26pm 87.53° F --° F 87.53° F 111.38° F 81.80° F 90.09% 84.89° F 1017.75mb 0.00mph -- 0.69mph 0 0.000"
375243 6/21/2024 10:21pm 87.73° F --° F 87.73° F 112.78° F 82.10° F 90.89% 85.31° F 1017.76mb 0.00mph -- 0.69mph 0 0.000"
375242 6/21/2024 10:16pm 87.33° F --° F 87.33° F 111.82° F 81.87° F 92.01% 85.22° F 1017.68mb 0.09mph NNW 1.38mph 0 0.000"
375241 6/21/2024 10:10pm 86.67° F --° F 86.67° F 110.10° F 81.42° F 93.72% 85.03° F 1017.67mb 0.21mph N 2.74mph 0 0.000"
375240 6/21/2024 10:05pm 86.92° F --° F 86.92° F 105.25° F 80.75° F 87.00% 83.42° F 1017.53mb 1.56mph N 3.43mph 0 0.000"
375239 6/21/2024 10:00pm 87.60° F --° F 87.60° F 105.46° F 81.09° F 84.71% 83.42° F 1017.54mb 2.32mph NNW 4.80mph 0 0.000"
375238 6/21/2024 9:55pm 88.43° F --° F 88.43° F 106.93° F 81.61° F 82.90% 83.69° F 1017.51mb 2.62mph NNW 6.85mph 0 0.000"
375237 6/21/2024 9:50pm 88.54° F --° F 88.54° F 109.96° F 81.80° F 83.49% 83.97° F 1017.44mb 0.57mph NNW 2.74mph 0 0.000"
375236 6/21/2024 9:45pm 88.25° F --° F 88.25° F 109.30° F 81.78° F 85.19% 84.19° F 1017.42mb 1.31mph N 3.43mph 0 0.000"
375235 6/21/2024 9:40pm 87.60° F --° F 87.60° F 106.51° F 81.51° F 87.68% 84.28° F 1017.37mb 3.22mph S 6.18mph 0 0.000"
375234 6/21/2024 9:35pm 87.85° F --° F 87.85° F 105.83° F 81.37° F 84.99% 83.74° F 1017.38mb 3.01mph S 6.85mph 0 0.000"
375233 6/21/2024 9:30pm 88.66° F --° F 88.66° F 107.44° F 81.86° F 83.08% 83.97° F 1017.39mb 3.06mph S 6.85mph 0 0.000"
375232 6/21/2024 9:25pm 89.28° F --° F 89.28° F 110.42° F 82.42° F 82.86% 84.50° F 1017.43mb 2.30mph NW 5.49mph 0 0.000"
375231 6/21/2024 9:20pm 88.86° F --° F 88.86° F 109.88° F 82.34° F 84.93% 84.71° F 1017.41mb 2.78mph S 5.49mph 0 0.000"
375230 6/21/2024 9:15pm 88.07° F --° F 88.07° F 109.23° F 82.17° F 89.06% 85.13° F 1017.30mb 3.36mph S 6.18mph 0 0.000"
375229 6/21/2024 9:10pm 88.18° F --° F 88.18° F 109.32° F 81.98° F 86.97% 84.64° F 1017.24mb 2.25mph S 5.49mph 0 0.000"
375228 6/21/2024 9:05pm 88.90° F --° F 88.90° F 108.86° F 82.46° F 85.54% 84.93° F 1017.21mb 4.32mph S 9.61mph 0 0.000"
375227 6/21/2024 8:59pm 89.62° F --° F 89.62° F 113.95° F 83.22° F 85.97% 85.76° F 1017.24mb 2.60mph S 4.80mph 0 0.000"
375226 6/21/2024 8:54pm 89.51° F --° F 89.51° F 111.97° F 83.29° F 87.09% 85.98° F 1017.18mb 4.90mph S 10.96mph 0 0.000"
375225 6/21/2024 8:49pm 89.22° F --° F 89.22° F 113.96° F 83.30° F 88.96% 86.23° F 1017.16mb 3.36mph S 6.18mph 0 0.000"
375224 6/21/2024 8:44pm 88.95° F --° F 88.95° F 109.24° F 82.54° F 85.74% 85.04° F 1017.09mb 4.30mph S 7.54mph 0 0.000"
375223 6/21/2024 8:39pm 89.74° F --° F 89.74° F 110.15° F 82.87° F 82.78% 84.92° F 1017.09mb 4.14mph S 8.23mph 0 0.000"
375222 6/21/2024 8:34pm 90.61° F --° F 90.61° F 111.16° F 83.41° F 80.99% 85.22° F 1016.93mb 4.94mph S 8.92mph 0 0.000"
375221 6/21/2024 8:29pm 90.55° F --° F 90.55° F 113.14° F 83.58° F 82.33% 85.57° F 1016.98mb 3.95mph S 7.54mph 0 0.000"
375220 6/21/2024 8:24pm 90.27° F --° F 90.27° F 112.61° F 83.44° F 83.32% 85.60° F 1016.99mb 4.21mph S 7.54mph 0 0.000"
375219 6/21/2024 8:19pm 89.91° F --° F 89.91° F 112.79° F 83.19° F 83.98% 85.45° F 1017.01mb 3.22mph S 7.54mph 0 0.000"
375218 6/21/2024 8:14pm 90.54° F --° F 90.54° F 112.11° F 82.77° F 77.69% 84.11° F 1016.90mb 1.24mph N 6.85mph 0 0.000"
375217 6/21/2024 8:09pm 91.38° F --° F 91.38° F 112.14° F 83.15° F 75.25% 84.12° F 1016.94mb 2.14mph N 6.18mph 0 0.000"
375216 6/21/2024 8:04pm 91.90° F --° F 91.90° F 111.90° F 83.54° F 74.59% 84.39° F 1016.91mb 3.56mph S 6.18mph 0 0.000"
375215 6/21/2024 7:58pm 91.96° F --° F 91.96° F 108.84° F 83.46° F 73.97% 84.24° F 1016.87mb 6.11mph S 10.96mph 0 0.000"
375214 6/21/2024 7:53pm 91.96° F --° F 91.96° F 109.70° F 83.43° F 73.80% 84.19° F 1016.85mb 5.17mph S 9.61mph 0 0.000"
375213 6/21/2024 7:48pm 91.80° F --° F 91.80° F 108.72° F 83.30° F 73.95% 84.08° F 1016.93mb 5.68mph S 8.23mph 0 0.000"
375212 6/21/2024 7:43pm 91.85° F --° F 91.85° F 107.62° F 82.57° F 69.77% 82.68° F 1016.89mb 3.63mph S 7.54mph 0 0.000"
375211 6/21/2024 7:38pm 92.79° F --° F 92.79° F 104.93° F 82.80° F 66.54% 82.40° F 1016.81mb 6.48mph S 13.03mph 0 0.000"
375210 6/21/2024 7:33pm 93.04° F --° F 93.04° F 104.56° F 82.90° F 65.99% 82.43° F 1016.70mb 7.13mph S 13.72mph 0 0.000"
375209 6/21/2024 7:28pm 92.86° F --° F 92.86° F 104.42° F 82.66° F 65.60% 82.11° F 1016.70mb 6.44mph S 11.65mph 0 0.000"
375208 6/21/2024 7:23pm 92.66° F --° F 92.66° F 103.76° F 82.25° F 64.42% 81.48° F 1016.64mb 5.61mph S 8.92mph 0 0.000"
375207 6/21/2024 7:18pm 93.49° F --° F 93.49° F 102.34° F 82.00° F 59.97% 80.49° F 1016.61mb 5.93mph S 8.92mph 0 0.000"
375206 6/21/2024 7:13pm 94.41° F --° F 94.41° F 103.31° F 82.55° F 58.76% 80.84° F 1016.62mb 6.55mph S 10.96mph 0 0.000"
375205 6/21/2024 7:08pm 94.73° F --° F 94.73° F 104.78° F 82.79° F 58.54% 81.05° F 1016.55mb 5.86mph S 9.61mph 0 0.000"
375204 6/21/2024 7:02pm 94.87° F --° F 94.87° F 103.49° F 82.59° F 57.21% 80.61° F 1016.54mb 6.41mph S 13.03mph 0 0.000"
375203 6/21/2024 6:57pm 94.93° F --° F 94.93° F 103.54° F 82.52° F 56.71% 80.45° F 1016.60mb 6.14mph S 13.72mph 0 0.000"
375202 6/21/2024 6:52pm 94.89° F --° F 94.89° F 103.17° F 82.40° F 56.34% 80.26° F 1016.63mb 6.11mph S 10.96mph 0 0.000"
375201 6/21/2024 6:47pm 95.23° F --° F 95.23° F 100.72° F 82.13° F 54.07% 79.57° F 1016.60mb 7.56mph S 13.03mph 0 0.000"
375200 6/21/2024 6:42pm 95.99° F --° F 95.99° F 103.18° F 82.48° F 52.92% 79.73° F 1016.66mb 6.28mph S 13.72mph 0 0.000"
375199 6/21/2024 6:37pm 96.30° F --° F 96.30° F 102.65° F 82.48° F 51.99% 79.58° F 1016.71mb 6.83mph S 17.15mph 0 0.000"
375198 6/21/2024 6:32pm 96.55° F --° F 96.55° F 102.85° F 82.55° F 51.44% 79.55° F 1016.71mb 6.83mph S 14.41mph 0 0.000"
375197 6/21/2024 6:27pm 96.76° F --° F 96.76° F 101.74° F 82.82° F 51.75% 79.89° F 1016.75mb 8.62mph S 17.15mph 0 0.000"
375196 6/21/2024 6:22pm 96.91° F --° F 96.91° F 107.29° F 83.11° F 52.27% 80.26° F 1016.69mb 4.23mph S 12.34mph 0 0.000"
375195 6/21/2024 6:17pm 96.40° F --° F 96.40° F 103.62° F 82.64° F 52.16% 79.75° F 1016.81mb 6.30mph S 13.72mph 0 0.000"
375194 6/21/2024 6:11pm 96.28° F --° F 96.28° F 98.34° F 81.87° F 49.86% 78.55° F 1016.80mb 9.22mph S 17.15mph 0 0.000"
375193 6/21/2024 6:06pm 97.11° F --° F 97.11° F 100.42° F 81.64° F 46.61% 77.67° F 1016.74mb 6.83mph S 10.96mph 0 0.000"
375192 6/21/2024 6:01pm 97.95° F --° F 97.95° F 99.17° F 81.73° F 44.61% 77.36° F 1016.68mb 8.41mph S 15.77mph 0 0.000"
375191 6/21/2024 5:56pm 98.01° F --° F 98.01° F 100.38° F 81.55° F 43.96% 77.06° F 1016.73mb 6.94mph S 13.03mph 0 0.000"
375190 6/21/2024 5:51pm 98.10° F --° F 98.10° F 99.50° F 81.48° F 43.50% 76.89° F 1016.68mb 7.63mph S 11.65mph 0 0.000"
375189 6/21/2024 5:46pm 98.29° F --° F 98.29° F 97.80° F 80.92° F 41.35% 75.85° F 1016.70mb 8.11mph S 15.77mph 0 0.000"
375188 6/21/2024 5:41pm 98.35° F --° F 98.35° F 100.63° F 81.29° F 42.27% 76.43° F 1016.75mb 6.23mph S 12.34mph 0 0.000"
375187 6/21/2024 5:36pm 98.37° F --° F 98.37° F 98.22° F 81.08° F 41.65% 76.09° F 1016.71mb 8.09mph S 16.46mph 0 0.000"
375186 6/21/2024 5:31pm 98.35° F --° F 98.35° F 101.16° F 81.41° F 42.64% 76.63° F 1016.70mb 6.00mph S 15.77mph 0 0.000"
375185 6/21/2024 5:26pm 98.35° F --° F 98.35° F 102.81° F 81.47° F 42.80% 76.72° F 1016.70mb 4.57mph S 9.61mph 0 0.000"
375184 6/21/2024 5:21pm 98.31° F --° F 98.31° F 97.81° F 81.23° F 42.17% 76.33° F 1016.75mb 8.71mph S 14.41mph 0 0.000"
375183 6/21/2024 5:15pm 98.13° F --° F 98.13° F 96.89° F 81.00° F 41.98% 76.07° F 1016.74mb 9.06mph S 19.88mph 0 0.000"
375182 6/21/2024 5:10pm 98.11° F --° F 98.11° F 97.61° F 81.28° F 42.83% 76.53° F 1016.82mb 8.94mph S 15.77mph 0 0.000"
375181 6/21/2024 5:05pm 98.11° F --° F 98.11° F 96.07° F 81.57° F 43.73% 77.03° F 1016.83mb 11.01mph S 23.33mph 0 0.000"
375180 6/21/2024 5:00pm 97.66° F --° F 97.66° F 100.44° F 82.16° F 46.76% 78.24° F 1017.01mb 8.16mph S 13.03mph 0 0.000"
375179 6/21/2024 4:55pm 96.76° F --° F 96.76° F 94.15° F 81.35° F 46.62% 77.36° F 1017.08mb 11.91mph S 22.64mph 0 0.000"
375178 6/21/2024 4:50pm 96.87° F --° F 96.87° F 98.34° F 82.55° F 50.39% 79.34° F 1017.18mb 11.01mph S 21.26mph 0 0.000"
375177 6/21/2024 4:45pm 98.08° F --° F 98.08° F 104.97° F 83.41° F 49.81% 80.14° F 1017.13mb 7.33mph S 15.08mph 0 0.000"
375176 6/21/2024 4:40pm 98.40° F --° F 98.40° F 103.91° F 83.94° F 50.64% 80.83° F 1017.19mb 9.82mph S 16.46mph 0 0.000"
375175 6/21/2024 4:35pm 98.28° F --° F 98.28° F 99.71° F 83.93° F 51.01% 80.90° F 1017.25mb 13.75mph S 22.64mph 0 0.000"
375174 6/21/2024 4:30pm 98.17° F --° F 98.17° F 98.51° F 83.68° F 50.43% 80.53° F 1017.33mb 14.09mph S 25.38mph 0 0.000"
375173 6/21/2024 4:24pm 97.97° F --° F 97.97° F 102.56° F 83.70° F 51.15% 80.69° F 1017.43mb 10.41mph S 22.64mph 0 0.000"
375172 6/21/2024 4:19pm 97.74° F --° F 97.74° F 101.75° F 83.69° F 51.85% 80.82° F 1017.56mb 11.17mph S 18.53mph 0 0.000"
375171 6/21/2024 4:14pm 97.38° F --° F 97.38° F 103.19° F 84.40° F 55.64% 82.23° F 1017.62mb 12.14mph S 22.64mph 0 0.000"
375170 6/21/2024 4:09pm 96.69° F --° F 96.69° F 102.23° F 83.88° F 55.96% 81.74° F 1017.59mb 11.42mph S 19.88mph 0 0.000"
375169 6/21/2024 4:04pm 97.07° F --° F 97.07° F 99.45° F 83.14° F 51.94% 80.25° F 1017.57mb 11.68mph S 23.33mph 0 0.000"
375168 6/21/2024 3:59pm 98.78° F --° F 98.78° F 102.19° F 84.41° F 51.16% 81.43° F 1017.70mb 12.87mph S 22.64mph 0 0.000"
375167 6/21/2024 3:54pm 99.18° F --° F 99.18° F 102.11° F 84.64° F 50.77% 81.60° F 1017.72mb 13.65mph S 19.88mph 0 0.000"
375166 6/21/2024 3:49pm 99.16° F --° F 99.16° F 109.17° F 85.73° F 54.69% 83.42° F 1017.78mb 10.71mph S 20.57mph 0 0.000"
375165 6/21/2024 3:44pm 98.78° F --° F 98.78° F 113.79° F 86.05° F 57.18% 84.18° F 1017.87mb 7.75mph S 15.08mph 0 0.000"
375164 6/21/2024 3:39pm 98.83° F --° F 98.83° F 105.72° F 85.16° F 53.68% 82.66° F 1017.86mb 12.02mph S 22.64mph 0 0.000"
375163 6/21/2024 3:33pm 99.37° F --° F 99.37° F 106.80° F 85.66° F 53.79% 83.20° F 1018.01mb 12.64mph S 24.69mph 0 0.000"
375162 6/21/2024 3:28pm 99.37° F --° F 99.37° F 105.99° F 85.97° F 54.86% 83.69° F 1018.01mb 14.46mph S 23.33mph 0 0.000"
375161 6/21/2024 3:23pm 99.25° F --° F 99.25° F 115.19° F 87.14° F 59.82% 85.75° F 1017.95mb 10.67mph S 19.88mph 0 0.000"
375160 6/21/2024 3:18pm 99.18° F --° F 99.18° F 108.07° F 86.58° F 57.91% 84.87° F 1018.00mb 15.06mph S 25.38mph 0 0.000"
375159 6/21/2024 3:13pm 99.18° F --° F 99.18° F 114.29° F 87.48° F 61.46% 86.37° F 1018.05mb 13.08mph S 23.33mph 0 0.000"
375158 6/21/2024 3:08pm 98.82° F --° F 98.82° F 119.16° F 87.54° F 63.06% 86.69° F 1017.95mb 9.10mph S 17.84mph 0 0.000"
375157 6/21/2024 3:03pm 98.87° F --° F 98.87° F 119.75° F 87.43° F 62.33% 86.44° F 1018.12mb 7.91mph S 23.33mph 0 0.000"
375156 6/21/2024 2:58pm 99.01° F --° F 99.01° F 123.99° F 88.30° F 65.54% 87.85° F 1018.27mb 8.11mph S 19.22mph 0 0.000"
375155 6/21/2024 2:53pm 98.46° F --° F 98.46° F 120.33° F 88.23° F 67.51% 88.09° F 1018.39mb 11.82mph S 22.64mph 0 0.000"
375154 6/21/2024 2:48pm 97.81° F --° F 97.81° F 117.63° F 87.15° F 65.36% 86.65° F 1018.51mb 9.59mph S 19.88mph 0 0.000"
375153 6/21/2024 2:42pm 96.98° F --° F 96.98° F 114.98° F 87.00° F 68.08% 86.91° F 1018.46mb 12.09mph S 26.07mph 0 0.000"
375152 6/21/2024 2:37pm 97.84° F --° F 97.84° F 118.59° F 87.12° F 65.07% 86.57° F 1018.59mb 8.48mph S 18.53mph 0 0.000"
375151 6/21/2024 2:32pm 98.76° F --° F 98.76° F 116.26° F 87.37° F 62.51% 86.41° F 1018.58mb 10.99mph S 17.84mph 0 0.000"
375150 6/21/2024 2:27pm 98.33° F --° F 98.33° F 118.35° F 87.40° F 64.31% 86.73° F 1018.70mb 9.56mph S 21.26mph 0 0.000"
375149 6/21/2024 2:22pm 98.62° F --° F 98.62° F 127.79° F 88.75° F 69.23% 88.88° F 1018.78mb 7.52mph S 21.95mph 0 0.000"
375148 6/21/2024 2:17pm 98.49° F --° F 98.49° F 118.94° F 88.20° F 67.23% 88.01° F 1018.61mb 12.90mph S 24.69mph 0 0.000"
375147 6/21/2024 2:12pm 98.51° F --° F 98.51° F 117.33° F 87.80° F 65.40% 87.32° F 1018.86mb 12.37mph S 26.07mph 0 0.000"
375146 6/21/2024 2:07pm 98.46° F --° F 98.46° F 129.89° F 89.55° F 73.78% 90.38° F 1018.83mb 10.62mph S 30.18mph 0 0.000"
375145 6/21/2024 2:02pm 97.79° F --° F 97.79° F 122.09° F 88.77° F 73.01% 89.47° F 1018.80mb 14.18mph S 30.18mph 0 0.000"
375144 6/21/2024 1:57pm 96.55° F --° F 96.55° F 127.62° F 88.65° F 78.37% 90.11° F 1018.92mb 10.41mph S 27.45mph 0 0.000"
375143 6/21/2024 1:51pm 96.44° F --° F 96.44° F 110.26° F 86.13° F 66.38% 85.76° F 1018.80mb 12.85mph S 27.45mph 0 0.000"
375142 6/21/2024 1:46pm 97.75° F --° F 97.75° F 106.58° F 86.15° F 61.28% 84.97° F 1018.90mb 15.42mph S 23.33mph 0 0.000"
375141 6/21/2024 1:41pm 98.64° F --° F 98.64° F 115.48° F 87.51° F 63.63% 86.75° F 1018.97mb 12.55mph S 23.33mph 0 0.000"
375140 6/21/2024 1:36pm 98.20° F --° F 98.20° F 126.50° F 88.51° F 69.91% 88.74° F 1018.92mb 7.93mph S 14.41mph 0 0.000"
375139 6/21/2024 1:31pm 97.90° F --° F 97.90° F 131.17° F 89.61° F 76.66% 90.84° F 1019.03mb 10.76mph S 19.88mph 0 0.000"
375138 6/21/2024 1:26pm 97.41° F --° F 97.41° F 131.75° F 89.62° F 79.23% 91.22° F 1019.15mb 11.40mph S 21.26mph 0 0.000"
375137 6/21/2024 1:21pm 96.69° F --° F 96.69° F 125.35° F 88.49° F 76.80% 89.72° F 1019.13mb 11.22mph S 19.88mph 0 0.000"
375136 6/21/2024 1:16pm 95.67° F --° F 95.67° F 138.14° F 89.48° F 88.02% 92.29° F 1019.32mb 8.69mph S 17.84mph 0 0.000"
375135 6/21/2024 1:11pm 96.37° F --° F 96.37° F 130.86° F 88.97° F 81.13% 90.84° F 1019.06mb 10.00mph S 27.45mph 0 0.000"
375134 6/21/2024 1:06pm 97.27° F --° F 97.27° F 128.03° F 89.15° F 77.45% 90.50° F 1019.17mb 11.98mph S 18.53mph 0 0.000"
375133 6/21/2024 1:01pm 96.94° F --° F 96.94° F 127.55° F 89.30° F 79.95% 91.01° F 1019.15mb 14.14mph S 23.33mph 0 0.000"
375132 6/21/2024 12:55pm 96.12° F --° F 96.12° F 152.99° F 91.35° F 97.25% 95.37° F 1019.29mb 10.14mph S 18.53mph 0 0.000"
375131 6/21/2024 12:50pm 94.96° F --° F 94.96° F 135.53° F 89.61° F 93.31% 93.12° F 1019.53mb 14.41mph S 24.00mph 0 0.000"
375130 6/21/2024 12:45pm 94.10° F --° F 94.10° F 134.70° F 89.23° F 96.42% 93.14° F 1019.45mb 14.62mph S 26.76mph 0 0.000"
375129 6/21/2024 12:40pm 94.86° F --° F 94.86° F 132.46° F 89.27° F 91.85% 92.61° F 1019.47mb 14.85mph S 28.80mph 0 0.000"
375128 6/21/2024 12:35pm 96.62° F --° F 96.62° F 135.30° F 89.36° F 81.97% 91.35° F 1019.62mb 8.05mph S 21.26mph 0 0.000"
375127 6/21/2024 12:30pm 96.66° F --° F 96.66° F 123.87° F 88.60° F 77.63% 89.97° F 1019.42mb 13.47mph S 24.69mph 0 0.000"
375126 6/21/2024 12:25pm 96.58° F --° F 96.58° F 128.91° F 89.03° F 80.25% 90.76° F 1019.64mb 11.65mph S 23.33mph 0 0.000"
375125 6/21/2024 12:20pm 96.21° F --° F 96.21° F 131.12° F 89.20° F 83.35% 91.39° F 1019.59mb 11.82mph S 22.64mph 0 0.000"
375124 6/21/2024 12:15pm 95.52° F --° F 95.52° F 139.00° F 90.00° F 92.18% 93.36° F 1019.65mb 12.64mph S 26.07mph 0 0.000"
375123 6/21/2024 12:10pm 95.85° F --° F 95.85° F 131.48° F 88.92° F 83.72% 91.15° F 1019.60mb 10.28mph S 20.57mph 0 0.000"
375122 6/21/2024 12:04pm 97.05° F --° F 97.05° F 142.74° F 90.50° F 86.02% 93.03° F 1019.59mb 8.57mph S 24.00mph 0 0.000"
375121 6/21/2024 11:59am 96.62° F --° F 96.62° F 138.78° F 89.98° F 85.53% 92.46° F 1019.61mb 9.47mph S 19.22mph 0 0.000"
375120 6/21/2024 11:54am 95.88° F --° F 95.88° F 135.72° F 89.56° F 87.29% 92.27° F 1019.61mb 11.03mph S 26.07mph 0 0.000"
375119 6/21/2024 11:49am 94.57° F --° F 94.57° F 135.67° F 89.37° F 94.19% 92.98° F 1019.57mb 13.36mph S 22.64mph 0 0.000"
375118 6/21/2024 11:44am 94.14° F --° F 94.14° F 135.65° F 89.05° F 95.09% 92.81° F 1019.58mb 12.25mph S 26.07mph 0 0.000"
375117 6/21/2024 11:39am 94.95° F --° F 94.95° F 128.15° F 88.58° F 86.82% 91.22° F 1019.62mb 13.01mph S 23.33mph 0 0.000"
375116 6/21/2024 11:34am 95.79° F --° F 95.79° F 139.23° F 89.97° F 90.27% 93.07° F 1019.67mb 11.26mph S 19.88mph 0 0.000"
375115 6/21/2024 11:29am 95.36° F --° F 95.36° F 133.98° F 89.33° F 89.02% 92.28° F 1019.72mb 12.32mph S 24.69mph 0 0.000"
375114 6/21/2024 11:24am 94.98° F --° F 94.98° F 137.95° F 89.60° F 93.15% 93.10° F 1019.71mb 12.05mph S 22.64mph 0 0.000"
375113 6/21/2024 11:19am 94.41° F --° F 94.41° F 147.24° F 89.67° F 97.45% 93.72° F 1019.71mb 5.98mph S 15.77mph 0 0.000"
375112 6/21/2024 11:13am 95.31° F --° F 95.31° F 138.67° F 89.45° F 90.00% 92.52° F 1019.67mb 8.96mph S 17.84mph 0 0.000"
375111 6/21/2024 11:08am 96.49° F --° F 96.49° F 134.16° F 89.90° F 85.81% 92.42° F 1019.56mb 13.52mph S 28.80mph 0 0.000"
375110 6/21/2024 11:03am 95.86° F --° F 95.86° F 147.52° F 90.59° F 93.91% 94.18° F 1019.71mb 8.92mph S 18.53mph 0 0.000"
375109 6/21/2024 10:58am 94.82° F --° F 94.82° F 152.39° F 90.47° F 100.00% 94.82° F 1019.69mb 7.03mph S 14.41mph 0 0.000"
375108 6/21/2024 10:53am 93.33° F --° F 93.33° F 141.46° F 88.96° F 100.00% 93.33° F 1019.68mb 8.62mph S 13.72mph 0 0.000"
375107 6/21/2024 10:48am 93.81° F --° F 93.81° F 145.25° F 89.45° F 100.00% 93.81° F 1019.72mb 7.82mph S 22.64mph 0 0.000"
375106 6/21/2024 10:43am 94.64° F --° F 94.64° F 151.37° F 90.16° F 99.25% 94.44° F 1019.69mb 5.88mph S 17.84mph 0 0.000"
375105 6/21/2024 10:38am 94.50° F --° F 94.50° F 142.84° F 89.90° F 98.31% 94.05° F 1019.78mb 11.75mph S 23.33mph 0 0.000"
375104 6/21/2024 10:33am 93.61° F --° F 93.61° F 140.23° F 89.25° F 100.00% 93.61° F 1019.76mb 11.36mph S 19.88mph 0 0.000"
375103 6/21/2024 10:28am 91.94° F --° F 91.94° F 130.55° F 87.57° F 100.00% 91.94° F 1019.83mb 11.13mph S 21.26mph 0 0.000"
375102 6/21/2024 10:22am 91.87° F --° F 91.87° F 133.36° F 87.49° F 100.00% 91.87° F 1019.71mb 8.14mph S 19.88mph 0 0.000"
375101 6/21/2024 10:17am 93.00° F --° F 93.00° F 137.53° F 88.64° F 100.00% 93.00° F 1019.74mb 10.44mph S 20.57mph 0 0.000"
375100 6/21/2024 10:12am 93.27° F --° F 93.27° F 135.71° F 88.91° F 100.00% 93.27° F 1019.74mb 13.65mph S 25.38mph 0 0.000"
375099 6/21/2024 10:07am 92.43° F --° F 92.43° F 133.59° F 88.06° F 100.00% 92.43° F 1019.76mb 10.96mph S 27.45mph 0 0.000"
375098 6/21/2024 10:02am 90.39° F --° F 90.39° F 124.35° F 86.01° F 100.00% 90.39° F 1019.85mb 8.78mph S 15.77mph 0 0.000"
375097 6/21/2024 9:57am 90.27° F --° F 90.27° F 126.25° F 85.88° F 100.00% 90.27° F 1019.81mb 6.39mph S 15.77mph 0 0.000"
375096 6/21/2024 9:52am 90.84° F --° F 90.84° F 128.73° F 86.46° F 100.00% 90.84° F 1019.85mb 7.01mph S 16.46mph 0 0.000"
375095 6/21/2024 9:47am 91.90° F --° F 91.90° F 136.73° F 87.53° F 100.00% 91.90° F 1019.85mb 5.15mph S 14.41mph 0 0.000"
375094 6/21/2024 9:42am 91.53° F --° F 91.53° F 132.39° F 87.15° F 100.00% 91.53° F 1019.77mb 7.22mph S 17.84mph 0 0.000"
375093 6/21/2024 9:37am 90.03° F --° F 90.03° F 120.24° F 85.65° F 100.00% 90.03° F 1019.84mb 10.78mph S 19.88mph 0 0.000"
375092 6/21/2024 9:32am 89.17° F --° F 89.17° F 114.52° F 84.78° F 100.00% 89.17° F 1019.78mb 11.84mph S 27.45mph 0 0.000"
375091 6/21/2024 9:27am 89.87° F --° F 89.87° F 121.60° F 85.48° F 100.00% 89.87° F 1019.88mb 8.71mph S 18.53mph 0 0.000"
375090 6/21/2024 9:21am 90.66° F --° F 90.66° F 124.35° F 86.28° F 100.00% 90.66° F 1019.74mb 10.16mph S 21.26mph 0 0.000"
375089 6/21/2024 9:16am 89.87° F --° F 89.87° F 125.74° F 85.48° F 100.00% 89.87° F 1019.83mb 4.85mph S 12.34mph 0 0.000"
375088 6/21/2024 9:11am 88.09° F --° F 88.09° F 116.78° F 83.69° F 100.00% 88.09° F 1019.75mb 4.55mph S 10.30mph 0 0.000"
375087 6/21/2024 9:06am 87.48° F --° F 87.48° F 112.76° F 83.07° F 100.00% 87.48° F 1019.87mb 5.47mph S 21.95mph 0 0.000"
375086 6/21/2024 9:01am 87.69° F --° F 87.69° F 108.37° F 83.29° F 100.00% 87.69° F 1019.78mb 10.53mph S 24.69mph 0 0.000"
375085 6/21/2024 8:56am 88.70° F --° F 88.70° F 113.16° F 84.30° F 100.00% 88.70° F 1019.86mb 10.83mph S 26.76mph 0 0.000"
375084 6/21/2024 8:51am 89.06° F --° F 89.06° F 120.34° F 84.67° F 100.00% 89.06° F 1019.73mb 5.88mph S 15.08mph 0 0.000"
375083 6/21/2024 8:46am 87.82° F --° F 87.82° F 112.28° F 83.42° F 100.00% 87.82° F 1019.71mb 7.49mph S 18.53mph 0 0.000"
375082 6/21/2024 8:41am 85.84° F --° F 85.84° F 103.27° F 81.42° F 100.00% 85.84° F 1019.63mb 7.03mph S 15.77mph 0 0.000"
375081 6/21/2024 8:36am 85.37° F --° F 85.37° F 102.43° F 80.95° F 100.00% 85.37° F 1019.80mb 5.82mph S 13.72mph 0 0.000"
375080 6/21/2024 8:31am 85.66° F --° F 85.66° F 106.02° F 81.24° F 100.00% 85.66° F 1019.71mb 3.70mph NNW 8.92mph 0 0.000"
375079 6/21/2024 8:25am 86.34° F --° F 86.34° F 109.66° F 81.93° F 100.00% 86.34° F 1019.73mb 3.24mph NNW 6.18mph 0 0.000"
375078 6/21/2024 8:20am 87.22° F --° F 87.22° F 114.62° F 82.82° F 100.00% 87.22° F 1019.66mb 2.55mph NNW 6.85mph 0 0.000"
375077 6/21/2024 8:15am 87.42° F --° F 87.42° F 114.06° F 83.02° F 100.00% 87.42° F 1019.60mb 3.98mph S 6.85mph 0 0.000"
375076 6/21/2024 8:10am 86.09° F --° F 86.09° F 105.59° F 81.68° F 100.00% 86.09° F 1019.51mb 5.95mph S 14.41mph 0 0.000"
375075 6/21/2024 8:05am 84.09° F --° F 84.09° F 97.99° F 79.66° F 100.00% 84.09° F 1019.58mb 4.71mph S 12.34mph 0 0.000"
375074 6/21/2024 8:00am 84.04° F --° F 84.04° F 98.37° F 79.61° F 100.00% 84.04° F 1019.59mb 4.16mph S 10.96mph 0 0.000"
375073 6/21/2024 7:55am 84.33° F --° F 84.33° F 99.81° F 79.90° F 100.00% 84.33° F 1019.62mb 3.98mph S 17.15mph 0 0.000"
375072 6/21/2024 7:50am 84.54° F --° F 84.54° F 98.65° F 80.12° F 100.00% 84.54° F 1019.57mb 5.91mph S 17.84mph 0 0.000"
375071 6/21/2024 7:45am 85.03° F --° F 85.03° F 101.43° F 80.61° F 100.00% 85.03° F 1019.53mb 5.33mph S 11.65mph 0 0.000"
375070 6/21/2024 7:40am 85.62° F --° F 85.62° F 106.52° F 81.20° F 100.00% 85.62° F 1019.54mb 3.06mph S 5.49mph 0 0.000"
375069 6/21/2024 7:35am 84.45° F --° F 84.45° F 100.89° F 80.03° F 100.00% 84.45° F 1019.46mb 3.45mph S 10.30mph 0 0.000"
375068 6/21/2024 7:30am 82.42° F --° F 82.42° F 94.23° F 77.98° F 100.00% 82.42° F 1019.42mb 1.82mph NNW 7.54mph 0 0.000"
375067 6/21/2024 7:25am 81.61° F --° F 81.61° F 87.43° F 77.16° F 100.00% 81.61° F 1019.37mb 5.24mph S 13.03mph 0 0.000"
375066 6/21/2024 7:20am 81.68° F --° F 81.68° F 90.62° F 77.23° F 100.00% 81.68° F 1019.33mb 2.51mph N 9.61mph 0 0.000"
375065 6/21/2024 7:14am 81.90° F --° F 81.90° F 89.69° F 77.45° F 100.00% 81.90° F 1019.39mb 4.16mph S 9.61mph 0 0.000"
375064 6/21/2024 7:09am 82.29° F --° F 82.29° F 92.02° F 77.85° F 100.00% 82.29° F 1019.34mb 3.40mph S 5.49mph 0 0.000"
375063 6/21/2024 7:04am 82.87° F --° F 82.87° F 94.41° F 78.43° F 100.00% 82.87° F 1019.30mb 3.33mph S 8.23mph 0 0.000"
375062 6/21/2024 6:59am 83.71° F --° F 83.71° F 98.68° F 79.28° F 100.00% 83.71° F 1019.37mb 2.57mph NNW 9.61mph 0 0.000"
375061 6/21/2024 6:54am 83.80° F --° F 83.80° F 100.96° F 79.37° F 100.00% 83.80° F 1019.32mb 0.80mph NNW 2.74mph 0 0.000"
375060 6/21/2024 6:49am 82.42° F --° F 82.42° F 94.09° F 77.98° F 100.00% 82.42° F 1019.17mb 1.95mph N 4.11mph 0 0.000"
375059 6/21/2024 6:44am 81.07° F --° F 81.07° F 88.90° F 76.62° F 100.00% 81.07° F 1019.16mb 1.98mph NNW 4.80mph 0 0.000"
375058 6/21/2024 6:39am 81.23° F --° F 81.23° F 89.11° F 76.78° F 100.00% 81.23° F 1019.20mb 2.34mph N 6.18mph 0 0.000"
375057 6/21/2024 6:34am 81.50° F --° F 81.50° F 92.36° F 77.05° F 100.00% 81.50° F 1019.18mb 0.25mph NNW 5.49mph 0 0.000"
375056 6/21/2024 6:29am 81.81° F --° F 81.81° F 93.46° F 77.36° F 100.00% 81.81° F 1019.17mb 0.32mph N 2.74mph 0 0.000"
375055 6/21/2024 6:24am 82.17° F --° F 82.17° F 94.73° F 77.72° F 100.00% 82.17° F 1019.12mb 0.44mph N 6.18mph 0 0.000"
375054 6/21/2024 6:19am 82.67° F --° F 82.67° F 96.51° F 78.23° F 100.00% 82.67° F 1019.13mb 0.62mph NNW 3.43mph 0 0.000"
375053 6/21/2024 6:14am 83.34° F --° F 83.34° F 99.90° F 78.90° F 100.00% 83.34° F 1019.12mb 0.00mph -- 0.69mph 0 0.000"
375052 6/21/2024 6:09am 83.41° F --° F 83.41° F 100.03° F 78.97° F 100.00% 83.41° F 1019.19mb 0.14mph NNW 1.38mph 0 0.000"
375051 6/21/2024 6:04am 82.26° F --° F 82.26° F 95.53° F 77.81° F 100.00% 82.26° F 1019.13mb 0.02mph N 0.69mph 0 0.000"
375050 6/21/2024 5:59am 81.55° F --° F 81.55° F 92.67° F 77.11° F 100.00% 81.55° F 1019.16mb 0.14mph N 2.74mph 0 0.000"
375049 6/21/2024 5:54am 81.82° F --° F 81.82° F 93.85° F 77.38° F 100.00% 81.82° F 1019.14mb 0.00mph -- 0.00mph 0 0.000"
375048 6/21/2024 5:48am 82.11° F --° F 82.11° F 94.77° F 77.67° F 100.00% 82.11° F 1018.98mb 0.18mph N 2.07mph 0 0.000"
375047 6/21/2024 5:43am 82.63° F --° F 82.63° F 96.52° F 78.20° F 100.00% 82.63° F 1019.04mb 0.46mph N 3.43mph 0 0.000"
375046 6/21/2024 5:38am 83.21° F --° F 83.21° F 99.36° F 78.78° F 100.00% 83.21° F 1018.95mb 0.00mph -- 0.69mph 0 0.000"
375045 6/21/2024 5:33am 83.93° F --° F 83.93° F 102.19° F 79.50° F 100.00% 83.93° F 1019.05mb 0.16mph N 2.74mph 0 0.000"
375044 6/21/2024 5:28am 83.77° F --° F 83.77° F 101.42° F 79.34° F 100.00% 83.77° F 1018.95mb 0.25mph NNW 2.07mph 0 0.000"
375043 6/21/2024 5:23am 82.60° F --° F 82.60° F 96.80° F 78.16° F 100.00% 82.60° F 1018.90mb 0.09mph N 1.38mph 0 0.000"
375042 6/21/2024 5:18am 82.11° F --° F 82.11° F 94.97° F 77.67° F 100.00% 82.11° F 1018.87mb 0.00mph -- 0.00mph 0 0.000"
375041 6/21/2024 5:13am 82.45° F --° F 82.45° F 96.30° F 78.01° F 100.00% 82.45° F 1018.82mb 0.00mph -- 0.00mph 0 0.000"
375040 6/21/2024 5:08am 82.89° F --° F 82.89° F 98.06° F 78.45° F 100.00% 82.89° F 1018.74mb 0.00mph -- 0.69mph 0 0.000"
375039 6/21/2024 5:03am 83.44° F --° F 83.44° F 100.31° F 79.01° F 100.00% 83.44° F 1018.78mb 0.00mph -- 0.69mph 0 0.000"
375038 6/21/2024 4:58am 84.18° F --° F 84.18° F 103.43° F 79.75° F 100.00% 84.18° F 1018.70mb 0.00mph -- 0.00mph 0 0.000"
375037 6/21/2024 4:53am 84.00° F --° F 84.00° F 102.64° F 79.57° F 100.00% 84.00° F 1018.70mb 0.02mph NNW 0.69mph 0 0.000"
375036 6/21/2024 4:48am 82.96° F --° F 82.96° F 97.83° F 78.52° F 100.00% 82.96° F 1018.72mb 0.48mph N 2.07mph 0 0.000"
375035 6/21/2024 4:43am 82.56° F --° F 82.56° F 96.74° F 78.12° F 100.00% 82.56° F 1018.70mb 0.00mph -- 0.00mph 0 0.000"
375034 6/21/2024 4:38am 83.03° F --° F 83.03° F 98.26° F 78.59° F 100.00% 83.03° F 1018.67mb 0.34mph N 2.74mph 0 0.000"
375033 6/21/2024 4:33am 83.59° F --° F 83.59° F 100.02° F 79.16° F 100.00% 83.59° F 1018.63mb 0.85mph N 3.43mph 0 0.000"
375032 6/21/2024 4:28am 84.33° F --° F 84.33° F 101.59° F 79.90° F 100.00% 84.33° F 1018.52mb 2.32mph NNW 5.49mph 0 0.000"
375031 6/21/2024 4:23am 84.97° F --° F 84.97° F 103.25° F 80.55° F 100.00% 84.97° F 1018.39mb 3.38mph S 5.49mph 0 0.000"
375030 6/21/2024 4:17am 84.07° F --° F 84.07° F 100.62° F 79.65° F 100.00% 84.07° F 1018.46mb 2.18mph N 4.80mph 0 0.000"
375029 6/21/2024 4:12am 82.42° F --° F 82.42° F 93.94° F 77.98° F 100.00% 82.42° F 1018.51mb 2.09mph N 5.49mph 0 0.000"
375028 6/21/2024 4:07am 81.90° F --° F 81.90° F 92.37° F 77.45° F 100.00% 81.90° F 1018.51mb 1.66mph N 5.49mph 0 0.000"
375027 6/21/2024 4:02am 82.04° F --° F 82.04° F 91.69° F 77.60° F 100.00% 82.04° F 1018.53mb 2.80mph N 6.85mph 0 0.000"
375026 6/21/2024 3:57am 82.29° F --° F 82.29° F 93.03° F 77.85° F 100.00% 82.29° F 1018.50mb 2.46mph S 6.85mph 0 0.000"
375025 6/21/2024 3:52am 82.60° F --° F 82.60° F 92.74° F 78.16° F 100.00% 82.60° F 1018.40mb 3.88mph S 8.92mph 0 0.000"
375024 6/21/2024 3:47am 83.03° F --° F 83.03° F 95.17° F 78.59° F 100.00% 83.03° F 1018.45mb 3.22mph S 6.18mph 0 0.000"
375023 6/21/2024 3:42am 83.61° F --° F 83.61° F 95.93° F 79.17° F 100.00% 83.61° F 1018.48mb 4.74mph S 8.23mph 0 0.000"
375022 6/21/2024 3:37am 84.42° F --° F 84.42° F 98.26° F 79.99° F 100.00% 84.42° F 1018.44mb 5.79mph S 10.30mph 0 0.000"
375021 6/21/2024 3:32am 85.32° F --° F 85.32° F 104.55° F 80.90° F 100.00% 85.32° F 1018.52mb 3.63mph S 7.54mph 0 0.000"
375020 6/21/2024 3:27am 84.51° F --° F 84.51° F 99.71° F 80.08° F 100.00% 84.51° F 1018.52mb 4.80mph S 13.03mph 0 0.000"
375019 6/21/2024 3:22am 82.96° F --° F 82.96° F 92.28° F 78.52° F 100.00% 82.96° F 1018.50mb 5.65mph S 12.34mph 0 0.000"
375018 6/21/2024 3:17am 82.89° F --° F 82.89° F 93.18° F 78.45° F 100.00% 82.89° F 1018.65mb 4.55mph S 9.61mph 0 0.000"
375017 6/21/2024 3:12am 83.32° F --° F 83.32° F 94.63° F 78.88° F 100.00% 83.32° F 1018.66mb 4.83mph S 8.92mph 0 0.000"
375016 6/21/2024 3:06am 83.91° F --° F 83.91° F 96.93° F 79.48° F 100.00% 83.91° F 1018.65mb 4.99mph S 10.96mph 0 0.000"
375015 6/21/2024 3:01am 84.72° F --° F 84.72° F 99.96° F 80.30° F 100.00% 84.72° F 1018.60mb 5.42mph S 12.34mph 0 0.000"
375014 6/21/2024 2:56am 85.55° F --° F 85.55° F 105.88° F 81.13° F 100.00% 85.55° F 1018.66mb 3.36mph N 8.23mph 0 0.000"
375013 6/21/2024 2:51am 84.83° F --° F 84.83° F 101.17° F 80.41° F 100.00% 84.83° F 1018.64mb 4.74mph S 9.61mph 0 0.000"
375012 6/21/2024 2:46am 83.41° F --° F 83.41° F 96.16° F 78.97° F 100.00% 83.41° F 1018.61mb 3.75mph S 6.85mph 0 0.000"
375011 6/21/2024 2:41am 83.64° F --° F 83.64° F 95.20° F 79.21° F 100.00% 83.64° F 1018.70mb 5.54mph S 10.30mph 0 0.000"
375010 6/21/2024 2:36am 84.31° F --° F 84.31° F 98.18° F 79.88° F 100.00% 84.31° F 1018.62mb 5.42mph S 10.30mph 0 0.000"
375009 6/21/2024 2:31am 85.23° F --° F 85.23° F 100.45° F 80.81° F 100.00% 85.23° F 1018.72mb 7.08mph S 13.03mph 0 0.000"
375008 6/21/2024 2:26am 85.66° F --° F 85.66° F 103.33° F 81.24° F 100.00% 85.66° F 1018.89mb 6.21mph S 13.03mph 0 0.000"
375007 6/21/2024 2:21am 84.49° F --° F 84.49° F 100.08° F 80.06° F 100.00% 84.49° F 1018.89mb 4.37mph S 11.65mph 0 0.000"
375006 6/21/2024 2:16am 82.63° F --° F 82.63° F 91.32° F 78.20° F 100.00% 82.63° F 1018.89mb 5.31mph S 9.61mph 0 0.000"
375005 6/21/2024 2:11am 82.40° F --° F 82.40° F 91.17° F 77.96° F 100.00% 82.40° F 1018.99mb 4.60mph S 7.54mph 0 0.000"
375004 6/21/2024 2:06am 82.62° F --° F 82.62° F 91.58° F 78.18° F 100.00% 82.62° F 1018.96mb 5.03mph S 8.23mph 0 0.000"
375003 6/21/2024 2:00am 82.89° F --° F 82.89° F 91.78° F 78.45° F 100.00% 82.89° F 1018.87mb 5.86mph S 10.96mph 0 0.000"
375002 6/21/2024 1:55am 83.25° F --° F 83.25° F 95.12° F 78.81° F 100.00% 83.25° F 1018.98mb 4.11mph S 8.92mph 0 0.000"
375001 6/21/2024 1:50am 83.71° F --° F 83.71° F 96.60° F 79.28° F 100.00% 83.71° F 1019.08mb 4.51mph S 8.23mph 0 0.000"
375000 6/21/2024 1:45am 84.40° F --° F 84.40° F 98.53° F 79.97° F 100.00% 84.40° F 1019.09mb 5.45mph S 10.96mph 0 0.000"
374999 6/21/2024 1:40am 85.32° F --° F 85.32° F 103.64° F 80.90° F 100.00% 85.32° F 1019.14mb 4.48mph S 9.61mph 0 0.000"
374998 6/21/2024 1:35am 86.07° F --° F 86.07° F 106.24° F 81.66° F 100.00% 86.07° F 1019.21mb 5.26mph S 12.34mph 0 0.000"
374997 6/21/2024 1:30am 84.97° F --° F 84.97° F 101.62° F 80.55° F 100.00% 84.97° F 1019.26mb 4.90mph S 10.30mph 0 0.000"
374996 6/21/2024 1:25am 83.37° F --° F 83.37° F 95.14° F 78.94° F 100.00% 83.37° F 1019.26mb 4.55mph S 10.96mph 0 0.000"
374995 6/21/2024 1:20am 83.57° F --° F 83.57° F 96.96° F 79.14° F 100.00% 83.57° F 1019.22mb 3.63mph S 6.18mph 0 0.000"
374994 6/21/2024 1:15am 84.04° F --° F 84.04° F 97.21° F 79.61° F 100.00% 84.04° F 1019.20mb 5.24mph S 10.96mph 0 0.000"
374993 6/21/2024 1:10am 84.79° F --° F 84.79° F 100.27° F 80.37° F 100.00% 84.79° F 1019.17mb 5.42mph S 13.03mph 0 0.000"
374992 6/21/2024 1:05am 85.62° F --° F 85.62° F 106.18° F 81.20° F 100.00% 85.62° F 1019.24mb 3.38mph S 7.54mph 0 0.000"
374991 6/21/2024 1:00am 86.18° F --° F 86.18° F 107.78° F 81.77° F 100.00% 86.18° F 1019.31mb 4.30mph S 10.30mph 0 0.000"
374990 6/21/2024 12:55am 85.21° F --° F 85.21° F 102.90° F 80.79° F 100.00% 85.21° F 1019.34mb 4.71mph S 9.61mph 0 0.000"
374989 6/21/2024 12:49am 83.84° F --° F 83.84° F 96.04° F 79.41° F 100.00% 83.84° F 1019.24mb 5.54mph S 13.03mph 0 0.000"
374988 6/21/2024 12:44am 84.27° F --° F 84.27° F 100.00° F 79.84° F 100.00% 84.27° F 1019.27mb 3.56mph S 8.23mph 0 0.000"
374987 6/21/2024 12:39am 84.85° F --° F 84.85° F 100.97° F 80.43° F 100.00% 84.85° F 1019.19mb 5.01mph S 9.61mph 0 0.000"
374986 6/21/2024 12:34am 85.66° F --° F 85.66° F 105.01° F 81.24° F 100.00% 85.66° F 1019.28mb 4.64mph S 7.54mph 0 0.000"
374985 6/21/2024 12:29am 86.29° F --° F 86.29° F 109.70° F 81.88° F 100.00% 86.29° F 1019.34mb 2.99mph S 8.23mph 0 0.000"
374984 6/21/2024 12:24am 85.41° F --° F 85.41° F 107.14° F 80.99° F 100.00% 85.41° F 1019.36mb 1.59mph S 4.11mph 0 0.000"
374983 6/21/2024 12:19am 84.27° F --° F 84.27° F 101.52° F 79.84° F 100.00% 84.27° F 1019.49mb 2.14mph NNW 4.80mph 0 0.000"
374982 6/21/2024 12:14am 84.54° F --° F 84.54° F 100.94° F 80.12° F 100.00% 84.54° F 1019.54mb 3.77mph S 10.30mph 0 0.000"
374981 6/21/2024 12:09am 85.30° F --° F 85.30° F 105.30° F 80.88° F 100.00% 85.30° F 1019.59mb 2.85mph S 5.49mph 0 0.000"
374980 6/21/2024 12:04am 86.27° F --° F 86.27° F 108.47° F 81.86° F 100.00% 86.27° F 1019.58mb 4.05mph S 9.61mph 0 0.000"